createdAt,value
2022-11-03T00:00:50.552Z,5.60
2022-11-03T00:03:36.213Z,5.00
2022-11-03T00:06:21.433Z,4.80
2022-11-03T00:09:09.291Z,5.15
2022-11-03T00:11:54.848Z,4.40
2022-11-03T00:14:40.213Z,4.65
2022-11-03T00:17:25.597Z,4.70
2022-11-03T00:20:11.286Z,4.70
2022-11-03T00:22:56.853Z,4.30
2022-11-03T00:25:42.020Z,4.88
2022-11-03T00:28:27.479Z,4.78
2022-11-03T00:31:18.608Z,5.18
2022-11-03T00:34:05.324Z,4.97
2022-11-03T00:36:50.354Z,5.15
2022-11-03T00:39:35.960Z,5.18
2022-11-03T00:42:21.320Z,4.78
2022-11-03T00:45:07.013Z,4.55
2022-11-03T00:48:14.716Z,4.35
2022-11-03T00:51:00.624Z,4.10
2022-11-03T00:53:48.465Z,4.40
2022-11-03T00:56:39.565Z,4.55
2022-11-03T00:59:25.157Z,4.45
2022-11-03T01:02:10.546Z,4.32
2022-11-03T01:05:14.666Z,4.18
2022-11-03T01:11:08.585Z,4.57
2022-11-03T01:13:54.115Z,4.57
2022-11-03T01:16:40.502Z,4.63
2022-11-03T01:19:26.159Z,4.90
2022-11-03T01:22:12.322Z,5.13
2022-11-03T01:24:57.691Z,5.22
2022-11-03T01:27:43.003Z,4.88
2022-11-03T01:30:28.418Z,5.50
2022-11-03T01:33:14.924Z,5.30
2022-11-03T01:36:00.426Z,4.82
2022-11-03T01:38:46.006Z,5.03
2022-11-03T01:41:31.255Z,5.25
2022-11-03T01:44:16.852Z,3.65
2022-11-03T01:47:14.693Z,4.10
2022-11-03T01:50:10.124Z,3.85
2022-11-03T01:52:58.624Z,4.68
2022-11-03T01:55:46.708Z,3.73
2022-11-03T01:58:37.185Z,4.10
2022-11-03T02:01:22.781Z,4.20
2022-11-03T02:04:13.021Z,4.47
2022-11-03T02:07:17.345Z,3.97
2022-11-03T02:10:03.785Z,4.15
2022-11-03T02:12:49.533Z,5.03
2022-11-03T02:15:35.765Z,4.65
2022-11-03T02:18:24.770Z,4.78
2022-11-03T02:21:25.523Z,5.82
2022-11-03T02:24:28.796Z,4.40
2022-11-03T02:27:14.009Z,5.30
2022-11-03T02:29:59.451Z,4.20
2022-11-03T02:33:23.191Z,5.03
2022-11-03T02:36:19.344Z,4.00
2022-11-03T02:39:34.039Z,4.22
2022-11-03T02:42:21.238Z,3.90
2022-11-03T02:45:13.235Z,4.05
2022-11-03T02:48:03.436Z,4.50
2022-11-03T02:50:49.194Z,4.28
2022-11-03T02:53:39.985Z,4.28
2022-11-03T02:56:25.704Z,4.25
2022-11-03T02:59:19.080Z,3.28
2022-11-03T03:02:11.641Z,4.05
2022-11-03T03:05:02.017Z,3.28
2022-11-03T03:07:53.052Z,3.50
2022-11-03T03:10:42.790Z,3.40
2022-11-03T03:13:28.327Z,3.63
2022-11-03T03:16:26.074Z,3.17
2022-11-03T03:19:33.033Z,3.60
2022-11-03T03:22:42.021Z,3.75
2022-11-03T03:25:50.865Z,3.67
2022-11-03T03:28:51.748Z,3.25
2022-11-03T03:31:41.406Z,4.07
2022-11-03T03:34:35.036Z,3.60
2022-11-03T03:37:23.322Z,2.63
2022-11-03T03:40:11.736Z,3.80
2022-11-03T03:42:57.484Z,3.97
2022-11-03T03:45:45.071Z,3.72
2022-11-03T03:48:30.193Z,3.58
2022-11-03T03:51:19.640Z,3.03
2022-11-03T03:54:04.746Z,3.55
2022-11-03T03:57:02.560Z,3.60
2022-11-03T03:59:47.880Z,3.30
2022-11-03T04:02:33.138Z,3.25
2022-11-03T04:05:18.602Z,2.65
2022-11-03T04:08:04.070Z,6.20
2022-11-03T04:11:08.176Z,4.13
2022-11-03T04:14:12.036Z,2.92
2022-11-03T04:17:15.658Z,3.30
2022-11-03T04:20:19.559Z,3.22
2022-11-03T04:23:04.649Z,3.40
2022-11-03T04:25:55.661Z,3.30
2022-11-03T04:28:42.243Z,3.83
2022-11-03T04:31:36.360Z,3.63
2022-11-03T04:34:23.682Z,2.72
2022-11-03T04:37:12.813Z,3.78
2022-11-03T04:40:01.276Z,4.32
2022-11-03T04:42:46.666Z,4.20
2022-11-03T04:45:34.022Z,3.97
2022-11-03T04:48:22.257Z,4.68
2022-11-03T04:51:14.832Z,4.22
2022-11-03T04:54:13.772Z,4.95
2022-11-03T04:56:58.987Z,5.07
2022-11-03T04:59:47.563Z,4.72
2022-11-03T05:02:33.241Z,4.20
2022-11-03T05:05:24.481Z,4.68
2022-11-03T05:08:09.853Z,4.43
2022-11-03T05:10:55.363Z,4.57
2022-11-03T05:13:40.461Z,4.75
2022-11-03T05:16:25.555Z,5.00
2022-11-03T05:19:27.200Z,4.88
2022-11-03T05:22:18.786Z,5.22
2022-11-03T05:25:42.119Z,5.10
2022-11-03T05:28:50.658Z,4.55
2022-11-03T05:31:36.952Z,5.68
2022-11-03T05:34:33.070Z,4.78
2022-11-03T05:37:34.802Z,5.35
2022-11-03T05:40:26.339Z,6.50
2022-11-03T05:43:17.499Z,5.32
2022-11-03T05:46:11.035Z,6.18
2022-11-03T05:48:57.743Z,6.55
2022-11-03T05:51:45.027Z,5.72
2022-11-03T05:54:35.178Z,5.75
2022-11-03T05:57:20.738Z,5.22
2022-11-03T06:00:21.496Z,5.65
2022-11-03T06:03:06.818Z,5.05
2022-11-03T06:05:53.074Z,4.28
2022-11-03T06:08:41.532Z,4.95
2022-11-03T06:11:36.244Z,4.55
2022-11-03T06:14:25.079Z,4.80
2022-11-03T06:17:21.256Z,5.73
2022-11-03T06:20:16.285Z,4.78
2022-11-03T06:23:02.096Z,5.00
2022-11-03T06:25:48.808Z,4.40
2022-11-03T06:28:37.673Z,4.80
2022-11-03T06:31:32.481Z,4.50
2022-11-03T06:34:44.073Z,4.80
2022-11-03T06:37:34.410Z,4.57
2022-11-03T06:40:19.476Z,5.35
2022-11-03T06:43:43.084Z,4.93
2022-11-03T06:46:28.277Z,4.95
2022-11-03T06:49:32.948Z,5.13
2022-11-03T06:52:39.972Z,5.95
2022-11-03T06:55:30.100Z,5.70
2022-11-03T06:58:19.831Z,7.22
2022-11-03T07:01:30.008Z,5.45
2022-11-03T07:04:20.309Z,4.90
2022-11-03T07:07:06.262Z,6.03
2022-11-03T07:09:55.002Z,5.72
2022-11-03T07:12:41.525Z,4.30
2022-11-03T07:15:32.481Z,4.80
2022-11-03T07:18:27.755Z,4.32
2022-11-03T07:21:30.951Z,4.63
2022-11-03T07:24:27.663Z,4.38
2022-11-03T07:27:28.962Z,4.90
2022-11-03T07:30:19.842Z,4.72
2022-11-03T07:33:20.306Z,5.38
2022-11-03T07:36:15.281Z,5.43
2022-11-03T07:39:02.593Z,4.40
2022-11-03T07:41:48.982Z,5.60
2022-11-03T17:54:15.993Z,6.10
2022-11-03T17:57:01.897Z,5.27
2022-11-03T17:59:50.766Z,4.82
2022-11-03T18:02:40.122Z,5.95
2022-11-03T18:05:31.298Z,4.93
2022-11-03T18:08:17.975Z,4.75
2022-11-03T18:11:03.630Z,5.25
2022-11-03T18:13:50.133Z,5.32
2022-11-03T18:16:35.374Z,4.85
2022-11-03T18:19:21.697Z,4.50
2022-11-03T18:22:08.653Z,4.25
2022-11-03T18:24:53.718Z,4.22
2022-11-03T18:27:38.976Z,5.68
2022-11-03T18:30:24.638Z,4.47
2022-11-03T18:33:18.233Z,4.72
2022-11-03T18:36:06.895Z,4.72
2022-11-03T18:38:56.120Z,5.00
2022-11-03T18:41:41.666Z,5.00
2022-11-03T18:44:29.450Z,4.47
2022-11-03T18:47:14.388Z,4.40
2022-11-03T18:49:59.599Z,4.78
2022-11-03T18:52:50.582Z,4.88
2022-11-03T18:55:36.071Z,4.65
2022-11-03T18:58:24.442Z,5.30
2022-11-03T19:01:21.329Z,4.50
2022-11-03T19:04:14.987Z,5.38
2022-11-03T19:07:02.771Z,5.53
2022-11-03T19:09:48.869Z,4.43
2022-11-03T19:12:38.844Z,4.57
2022-11-03T19:15:24.898Z,4.20
2022-11-03T19:18:13.120Z,5.07
2022-11-03T19:20:58.648Z,5.07
2022-11-03T19:23:47.860Z,6.53
2022-11-03T19:26:42.393Z,6.03
2022-11-03T19:29:30.704Z,6.15
2022-11-03T23:01:02.627Z,7.72
2022-11-03T23:06:38.657Z,7.97
2022-11-03T23:09:24.172Z,7.88
2022-11-03T23:12:10.226Z,9.18
2022-11-03T23:15:14.319Z,9.32
2022-11-03T23:18:19.223Z,8.40
2022-11-03T23:21:07.306Z,9.48
2022-11-03T23:24:11.360Z,8.38
2022-11-03T23:26:56.782Z,8.85
2022-11-03T23:29:42.051Z,7.70
2022-11-03T23:32:27.501Z,8.43
2022-11-03T23:35:14.429Z,8.57
2022-11-03T23:37:59.756Z,8.70
2022-11-03T23:40:45.158Z,8.27
2022-11-03T23:43:30.697Z,8.38
2022-11-03T23:46:37.649Z,8.63
2022-11-03T23:49:22.909Z,8.18
2022-11-03T23:52:07.970Z,8.40
2022-11-03T23:54:53.380Z,8.40
2022-11-03T23:57:57.244Z,8.45
